createdAt,value
2023-04-11T00:00:17.524Z,3.90
2023-04-11T00:02:45.105Z,4.43
2023-04-11T00:05:11.659Z,4.45
2023-04-11T00:07:38.798Z,6.45
2023-04-11T00:10:07.174Z,5.50
2023-04-11T00:12:33.589Z,5.80
2023-04-11T00:15:00.519Z,4.72
2023-04-11T00:17:28.751Z,5.32
2023-04-11T00:19:55.819Z,5.88
2023-04-11T00:22:24.841Z,6.43
2023-04-11T00:24:52.966Z,6.82
2023-04-11T00:27:21.789Z,7.05
2023-04-11T00:29:48.544Z,7.68
2023-04-11T00:32:15.015Z,6.50
2023-04-11T00:34:42.484Z,6.93
2023-04-11T00:37:08.924Z,7.50
2023-04-11T00:39:35.778Z,7.45
2023-04-11T00:42:07.239Z,7.15
2023-04-11T00:44:35.142Z,7.57
2023-04-11T00:47:06.067Z,7.93
2023-04-11T00:49:32.904Z,6.05
2023-04-11T00:51:59.731Z,5.80
2023-04-11T00:54:30.515Z,4.25
2023-04-11T00:56:59.239Z,3.95
2023-04-11T00:59:28.352Z,3.83
2023-04-11T01:01:55.774Z,3.92
2023-04-11T01:04:22.516Z,3.10
2023-04-11T01:06:52.968Z,3.67
2023-04-11T01:09:23.318Z,3.15
2023-04-11T01:11:50.917Z,3.90
2023-04-11T01:14:20.165Z,4.10
2023-04-11T01:16:48.389Z,3.45
2023-04-11T01:19:18.528Z,4.65
2023-04-11T01:21:47.231Z,4.75
2023-04-11T01:24:14.203Z,4.30
2023-04-11T01:26:41.068Z,4.35
2023-04-11T01:29:07.712Z,4.55
2023-04-11T01:31:34.773Z,4.50
2023-04-11T01:34:02.583Z,4.53
2023-04-11T01:36:31.742Z,4.10
2023-04-11T01:38:58.607Z,4.03
2023-04-11T01:41:26.537Z,4.25
2023-04-11T01:43:53.505Z,3.83
2023-04-11T01:46:20.001Z,3.83
2023-04-11T01:48:46.512Z,5.07
2023-04-11T01:51:13.444Z,3.95
2023-04-11T01:53:39.909Z,4.63
2023-04-11T01:56:06.975Z,4.53
2023-04-11T01:58:33.609Z,4.50
2023-04-11T02:01:00.108Z,5.07
2023-04-11T02:03:26.910Z,5.00
2023-04-11T02:05:53.973Z,5.70
2023-04-11T02:08:20.369Z,5.68
2023-04-11T02:10:46.772Z,5.57
2023-04-11T02:13:13.662Z,6.45
2023-04-11T02:15:40.084Z,7.18
2023-04-11T02:18:07.079Z,6.78
2023-04-11T02:20:33.806Z,6.05
2023-04-11T02:23:04.220Z,7.30
2023-04-11T02:25:31.225Z,7.50
2023-04-11T02:27:57.955Z,6.97
2023-04-11T02:30:24.419Z,6.22
2023-04-11T02:32:50.903Z,6.80
2023-04-11T02:35:18.295Z,5.55
2023-04-11T02:37:44.708Z,4.07
2023-04-11T02:40:11.359Z,3.90
2023-04-11T02:42:40.328Z,3.55
2023-04-11T02:45:07.343Z,3.53
2023-04-11T02:47:34.305Z,3.40
2023-04-11T02:50:00.791Z,3.15
2023-04-11T02:52:27.215Z,3.17
2023-04-11T02:54:54.041Z,3.40
2023-04-11T02:57:20.464Z,3.13
2023-04-11T02:59:46.882Z,3.15
2023-04-11T03:02:13.966Z,3.78
2023-04-11T03:04:40.611Z,2.72
2023-04-11T03:07:07.165Z,2.50
2023-04-11T03:09:34.094Z,3.08
2023-04-11T03:12:01.225Z,2.70
2023-04-11T03:14:27.644Z,2.30
2023-04-11T03:16:54.468Z,2.80
2023-04-11T03:19:21.092Z,2.60
2023-04-11T03:21:47.549Z,2.03
2023-04-11T03:24:14.396Z,2.28
2023-04-11T03:26:40.986Z,1.77
2023-04-11T03:29:08.407Z,2.35
2023-04-11T03:31:34.873Z,2.33
2023-04-11T03:34:01.348Z,2.08
2023-04-11T03:36:28.151Z,2.08
2023-04-11T03:38:54.840Z,2.20
2023-04-11T03:41:22.127Z,2.05
2023-04-11T03:43:48.558Z,1.92
2023-04-11T03:46:14.984Z,2.35
2023-04-11T03:48:41.901Z,2.17
2023-04-11T03:51:08.422Z,2.15
2023-04-11T03:53:35.257Z,2.17
2023-04-11T03:56:02.010Z,2.10
2023-04-11T03:58:28.804Z,1.88
2023-04-11T04:00:55.352Z,1.70
2023-04-11T04:03:22.314Z,1.55
2023-04-11T04:05:48.877Z,1.90
2023-04-11T04:08:15.277Z,1.73
2023-04-11T04:10:42.209Z,1.50
2023-04-11T04:13:08.649Z,1.98
2023-04-11T04:15:35.310Z,1.90
2023-04-11T04:18:02.124Z,1.33
2023-04-11T04:20:28.620Z,1.10
2023-04-11T04:22:56.116Z,1.15
2023-04-11T04:25:25.716Z,1.00
2023-04-11T04:27:54.069Z,1.08
2023-04-11T04:30:22.356Z,0.80
2023-04-11T04:32:55.003Z,0.70
2023-04-11T04:35:21.626Z,0.70
2023-04-11T04:37:48.058Z,0.70
2023-04-11T04:40:16.367Z,0.60
2023-04-11T04:42:43.157Z,0.52
2023-04-11T04:45:11.178Z,0.47
2023-04-11T04:47:38.920Z,0.63
2023-04-11T04:50:06.054Z,0.95
2023-04-11T04:52:32.453Z,0.63
2023-04-11T04:54:59.491Z,0.50
2023-04-11T04:57:27.207Z,0.60
2023-04-11T04:59:54.717Z,0.60
2023-04-11T05:02:22.222Z,0.75
2023-04-11T05:04:50.349Z,0.50
2023-04-11T05:07:20.853Z,0.88
2023-04-11T05:09:47.858Z,0.70
2023-04-11T05:12:15.976Z,0.52
2023-04-11T05:14:42.624Z,0.52
2023-04-11T05:17:09.443Z,0.70
2023-04-11T05:19:36.044Z,0.70
2023-04-11T05:22:02.935Z,0.50
2023-04-11T05:24:29.368Z,0.65
2023-04-11T05:26:56.674Z,0.57
2023-04-11T05:29:23.547Z,0.80
2023-04-11T05:31:49.959Z,0.90
2023-04-11T05:34:16.419Z,0.45
2023-04-11T05:36:43.285Z,0.52
2023-04-11T05:39:09.693Z,0.80
2023-04-11T05:41:36.570Z,0.93
2023-04-11T05:44:03.363Z,0.80
2023-04-11T05:46:29.985Z,0.60
2023-04-11T05:49:01.274Z,0.52
2023-04-11T05:51:27.729Z,0.32
2023-04-11T05:53:54.930Z,0.85
2023-04-11T05:56:21.501Z,1.05
2023-04-11T05:58:48.425Z,0.60
2023-04-11T06:01:18.387Z,0.70
2023-04-11T06:03:46.036Z,0.73
2023-04-11T06:06:13.460Z,1.08
2023-04-11T06:08:40.637Z,0.82
2023-04-11T06:11:07.165Z,0.85
2023-04-11T06:13:33.565Z,0.88
2023-04-11T06:16:01.955Z,0.65
2023-04-11T06:18:28.445Z,0.90
2023-04-11T06:20:54.926Z,0.43
2023-04-11T06:23:21.838Z,0.80
2023-04-11T06:25:48.246Z,0.43
2023-04-11T06:28:14.703Z,0.65
2023-04-11T06:30:42.266Z,0.43
2023-04-11T06:33:08.696Z,0.60
2023-04-11T06:35:36.148Z,0.60
2023-04-11T06:38:02.942Z,0.75
2023-04-11T06:40:29.477Z,0.40
2023-04-11T06:42:57.877Z,0.82
2023-04-11T06:45:25.049Z,0.68
2023-04-11T06:47:51.492Z,0.68
2023-04-11T06:50:18.047Z,0.70
2023-04-11T06:52:44.878Z,0.77
2023-04-11T06:55:14.402Z,0.68
2023-04-11T06:57:42.778Z,0.73
2023-04-11T07:00:12.579Z,0.70
2023-04-11T07:02:42.125Z,0.77
2023-04-11T07:05:10.156Z,0.50
2023-04-11T07:07:37.668Z,0.80
2023-04-11T07:10:05.088Z,0.65
2023-04-11T07:12:32.056Z,0.50
2023-04-11T07:14:58.582Z,0.60
2023-04-11T07:17:25.282Z,0.60
2023-04-11T07:19:52.393Z,0.68
2023-04-11T07:22:19.116Z,0.70
2023-04-11T07:24:46.462Z,1.10
2023-04-11T07:27:14.601Z,0.88
2023-04-11T07:29:41.217Z,0.98
2023-04-11T07:32:07.720Z,0.50
2023-04-11T07:34:34.455Z,0.60
2023-04-11T07:37:01.095Z,0.70
2023-04-11T07:39:28.432Z,0.50
2023-04-11T07:41:54.924Z,0.52
2023-04-11T07:44:22.139Z,0.90
2023-04-11T07:46:49.593Z,0.85
2023-04-11T07:49:16.065Z,0.80
2023-04-11T07:51:42.730Z,0.70
2023-04-11T07:54:09.717Z,0.80
2023-04-11T07:56:36.255Z,0.77
2023-04-11T07:59:03.606Z,0.57
2023-04-11T08:01:30.917Z,1.80
2023-04-11T08:03:58.293Z,0.80
2023-04-11T08:06:25.752Z,0.77
2023-04-11T08:08:52.209Z,0.70
2023-04-11T08:11:18.699Z,0.70
2023-04-11T08:13:45.557Z,0.77
2023-04-11T08:16:15.151Z,0.75
2023-04-11T08:18:46.125Z,0.50
2023-04-11T08:21:13.189Z,0.70
2023-04-11T08:23:41.972Z,0.55
2023-04-11T08:26:10.976Z,0.68
2023-04-11T08:28:37.510Z,0.70
2023-04-11T08:31:05.384Z,0.75
2023-04-11T08:33:32.064Z,0.77
2023-04-11T08:35:58.576Z,0.60
2023-04-11T08:38:24.990Z,0.80
2023-04-11T08:40:51.684Z,0.70
2023-04-11T08:43:18.829Z,1.67
2023-04-11T08:45:45.328Z,0.80
2023-04-11T08:48:14.653Z,0.60
2023-04-11T08:50:42.309Z,0.70
2023-04-11T08:53:08.944Z,0.70
2023-04-11T08:55:44.062Z,0.80
2023-04-11T08:58:10.693Z,1.02
2023-04-11T09:00:37.490Z,0.93
2023-04-11T09:03:06.746Z,1.45
2023-04-11T09:05:38.691Z,0.90
2023-04-11T09:08:16.434Z,0.88
2023-04-11T09:10:47.716Z,1.00
2023-04-11T09:13:25.624Z,0.70
2023-04-11T09:16:12.921Z,0.85
2023-04-11T09:18:43.806Z,1.00
2023-04-11T09:21:13.430Z,0.70
2023-04-11T09:23:40.498Z,0.80
2023-04-11T09:26:09.151Z,0.60
2023-04-11T09:28:45.059Z,1.02
2023-04-11T09:31:14.950Z,0.90
2023-04-11T09:33:54.153Z,1.05
2023-04-11T09:36:22.919Z,0.60
2023-04-11T09:38:49.524Z,1.05
2023-04-11T09:41:30.005Z,0.93
2023-04-11T09:43:56.833Z,1.05
2023-04-11T09:46:24.710Z,0.93
2023-04-11T09:48:53.501Z,1.00
2023-04-11T09:51:35.138Z,1.10
2023-04-11T09:54:04.102Z,0.68
2023-04-11T09:56:31.596Z,0.77
2023-04-11T09:59:00.081Z,1.30
2023-04-11T10:01:27.674Z,0.90
2023-04-11T10:03:55.997Z,0.90
2023-04-11T10:06:34.497Z,0.85
2023-04-11T10:09:12.025Z,0.95
2023-04-11T10:11:45.789Z,0.77
2023-04-11T10:14:37.927Z,1.00
2023-04-11T10:17:22.698Z,0.90
2023-04-11T10:19:54.636Z,0.90
2023-04-11T10:23:01.270Z,1.30
2023-04-11T10:25:29.199Z,1.08
2023-04-11T10:28:06.102Z,1.00
2023-04-11T10:30:42.108Z,0.80
2023-04-11T10:33:12.599Z,1.10
2023-04-11T10:36:05.802Z,0.90
2023-04-11T10:38:41.945Z,1.17
2023-04-11T10:41:27.802Z,1.58
2023-04-11T10:44:13.860Z,0.70
2023-04-11T10:46:49.940Z,0.82
2023-04-11T10:49:36.675Z,1.00
2023-04-11T10:52:17.771Z,0.80
2023-04-11T10:54:46.335Z,1.00
2023-04-11T10:57:13.219Z,1.00
2023-04-11T10:59:39.933Z,1.13
2023-04-11T11:02:06.457Z,1.10
2023-04-11T11:04:34.931Z,0.70
2023-04-11T11:07:05.936Z,1.10
2023-04-11T11:09:33.547Z,1.10
2023-04-11T11:12:11.405Z,1.00
2023-04-11T11:14:39.348Z,0.90
2023-04-11T11:17:06.712Z,1.10
2023-04-11T11:19:34.940Z,1.23
2023-04-11T11:22:03.810Z,1.27
2023-04-11T11:24:30.941Z,1.20
2023-04-11T11:26:58.523Z,1.30
2023-04-11T11:29:35.966Z,0.80
2023-04-11T11:32:06.471Z,1.40
2023-04-11T11:34:35.006Z,1.17
2023-04-11T11:37:07.007Z,1.10
2023-04-11T11:39:34.676Z,1.30
2023-04-11T11:42:01.672Z,1.00
2023-04-11T11:44:31.094Z,1.23
2023-04-11T11:47:04.638Z,1.00
2023-04-11T11:49:51.963Z,1.35
2023-04-11T11:52:51.266Z,1.10
2023-04-11T11:55:18.000Z,1.23
2023-04-11T11:57:46.068Z,0.85
2023-04-11T12:00:13.839Z,1.17
2023-04-11T12:02:43.304Z,1.00
2023-04-11T12:05:13.586Z,1.00
2023-04-11T12:07:40.577Z,0.95
2023-04-11T12:10:09.659Z,1.10
2023-04-11T12:12:41.241Z,1.48
2023-04-11T12:15:12.657Z,1.00
2023-04-11T12:17:39.811Z,0.82
2023-04-11T12:20:11.147Z,1.10
2023-04-11T12:22:37.952Z,1.30
2023-04-11T12:25:11.850Z,1.05
2023-04-11T12:27:39.520Z,1.17
2023-04-11T12:30:07.217Z,0.90
2023-04-11T12:32:35.442Z,0.95
2023-04-11T12:35:04.178Z,1.13
2023-04-11T12:37:31.708Z,1.05
2023-04-11T12:39:58.277Z,1.35
2023-04-11T12:42:27.226Z,1.15
2023-04-11T12:44:54.633Z,1.10
2023-04-11T12:47:21.602Z,1.10
2023-04-11T12:49:48.102Z,1.17
2023-04-11T12:52:15.040Z,1.15
2023-04-11T12:54:41.585Z,1.00
2023-04-11T12:57:08.176Z,0.95
2023-04-11T12:59:35.120Z,1.00
2023-04-11T13:02:02.083Z,1.00
2023-04-11T13:04:28.930Z,1.38
2023-04-11T13:07:01.558Z,1.08
2023-04-11T13:09:31.540Z,1.13
2023-04-11T13:11:58.910Z,1.20
2023-04-11T13:14:26.199Z,1.40
2023-04-11T13:16:52.623Z,1.10
2023-04-11T13:19:19.409Z,0.90
2023-04-11T13:21:46.259Z,1.27
2023-04-11T13:24:12.760Z,1.35
2023-04-11T13:26:39.610Z,0.90
2023-04-11T13:29:07.626Z,1.05
2023-04-11T13:31:34.129Z,1.10
2023-04-11T13:34:01.662Z,1.50
2023-04-11T13:39:15.926Z,1.48
2023-04-11T13:41:42.785Z,1.10
2023-04-11T13:44:09.200Z,1.20
2023-04-11T13:46:35.602Z,1.15
2023-04-11T13:49:02.387Z,1.10
2023-04-11T13:51:28.810Z,0.93
2023-04-11T13:53:55.850Z,1.13
2023-04-11T13:56:23.236Z,1.10
2023-04-11T13:58:50.543Z,0.73
2023-04-11T14:01:18.132Z,1.10
2023-04-11T14:03:44.785Z,1.27
2023-04-11T14:06:11.681Z,0.88
2023-04-11T14:08:38.578Z,1.20
2023-04-11T14:11:05.813Z,1.20
2023-04-11T14:13:32.274Z,0.88
2023-04-11T14:16:08.077Z,1.08
2023-04-11T14:18:36.542Z,0.90
2023-04-11T14:21:04.919Z,1.15
2023-04-11T14:23:31.570Z,1.00
2023-04-11T14:25:58.444Z,0.98
2023-04-11T14:28:26.584Z,1.00
2023-04-11T14:30:53.573Z,1.33
2023-04-11T14:33:20.536Z,1.20
2023-04-11T14:35:47.352Z,1.27
2023-04-11T14:38:17.209Z,1.10
2023-04-11T14:40:44.609Z,1.10
2023-04-11T14:43:11.279Z,1.10
2023-04-11T14:45:38.222Z,1.40
2023-04-11T14:48:05.101Z,1.15
2023-04-11T14:50:31.604Z,1.10
2023-04-11T14:52:58.535Z,0.80
2023-04-11T14:55:24.974Z,0.90
2023-04-11T14:57:53.201Z,1.90
2023-04-11T15:00:20.896Z,1.00
2023-04-11T15:02:49.364Z,1.60
2023-04-11T15:05:17.865Z,1.30
2023-04-11T15:07:49.065Z,1.10
2023-04-11T15:10:18.469Z,1.00
2023-04-11T15:12:45.609Z,1.77
2023-04-11T15:15:13.172Z,0.90
2023-04-11T15:17:41.880Z,0.90
2023-04-11T15:20:10.047Z,1.20
2023-04-11T15:22:41.855Z,1.50
2023-04-11T15:25:12.429Z,1.48
2023-04-11T15:27:39.249Z,1.42
2023-04-11T15:30:06.964Z,1.33
2023-04-11T15:32:33.699Z,1.40
2023-04-11T15:35:00.374Z,1.00
2023-04-11T15:37:27.448Z,1.23
2023-04-11T15:39:54.278Z,1.23
2023-04-11T15:42:21.072Z,1.55
2023-04-11T15:44:47.581Z,1.27
2023-04-11T15:47:14.061Z,1.27
2023-04-11T15:49:41.351Z,1.20
2023-04-11T15:52:07.831Z,1.13
2023-04-11T15:54:34.808Z,1.38
2023-04-11T15:57:02.375Z,1.10
2023-04-11T15:59:29.420Z,1.00
2023-04-11T16:01:56.680Z,1.10
2023-04-11T16:04:23.323Z,1.27
2023-04-11T16:06:50.019Z,1.13
2023-04-11T16:09:17.650Z,1.15
2023-04-11T16:11:44.090Z,1.60
2023-04-11T16:14:11.228Z,1.15
2023-04-11T16:16:38.291Z,0.88
2023-04-11T16:19:05.706Z,1.52
2023-04-11T16:21:32.331Z,1.55
2023-04-11T16:23:59.367Z,1.50
2023-04-11T16:26:26.934Z,1.40
2023-04-11T16:28:53.763Z,1.25
2023-04-11T16:31:24.474Z,2.10
2023-04-11T16:33:52.794Z,1.00
2023-04-11T16:36:20.458Z,1.50
2023-04-11T16:38:49.571Z,6.50
2023-04-11T16:41:17.857Z,2.03
2023-04-11T16:43:44.551Z,1.25
2023-04-11T16:46:13.145Z,1.75
2023-04-11T16:48:41.688Z,6.82
2023-04-11T16:51:12.195Z,3.88
2023-04-11T16:53:42.122Z,1.40
2023-04-11T16:56:08.894Z,1.30
2023-04-11T16:58:36.011Z,2.13
2023-04-11T17:01:02.536Z,1.20
2023-04-11T17:03:29.526Z,1.30
2023-04-11T17:05:56.487Z,1.40
2023-04-11T17:08:23.050Z,1.52
2023-04-11T17:10:49.568Z,1.20
2023-04-11T17:13:18.977Z,1.10
2023-04-11T17:15:45.960Z,1.15
2023-04-11T17:18:14.044Z,1.10
2023-04-11T17:20:41.721Z,1.33
2023-04-11T17:23:08.156Z,1.05
2023-04-11T17:25:34.664Z,1.35
2023-04-11T17:28:01.948Z,1.23
2023-04-11T17:30:31.005Z,1.23
2023-04-11T17:32:58.125Z,1.17
2023-04-11T17:35:25.540Z,1.10
2023-04-11T17:37:51.938Z,1.17
2023-04-11T17:40:18.750Z,1.13
2023-04-11T17:42:46.351Z,1.02
2023-04-11T17:45:17.527Z,1.00
2023-04-11T17:47:45.224Z,1.17
2023-04-11T17:50:13.382Z,1.50
2023-04-11T17:52:44.237Z,1.10
2023-04-11T17:55:13.290Z,1.10
2023-04-11T17:57:40.302Z,1.30
2023-04-11T18:00:26.233Z,1.33
2023-04-11T18:02:54.932Z,1.30
2023-04-11T18:05:25.578Z,1.20
2023-04-11T18:07:55.169Z,1.27
2023-04-11T18:10:22.214Z,1.38
2023-04-11T18:12:51.149Z,1.15
2023-04-11T18:15:18.458Z,1.23
2023-04-11T18:17:47.223Z,1.05
2023-04-11T18:20:15.424Z,1.17
2023-04-11T18:22:44.763Z,1.25
2023-04-11T18:25:11.804Z,1.15
2023-04-11T18:27:40.135Z,1.17
2023-04-11T18:30:10.611Z,1.00
2023-04-11T18:32:43.984Z,1.40
2023-04-11T18:35:12.674Z,1.30
2023-04-11T18:37:41.004Z,1.00
2023-04-11T18:40:11.964Z,1.25
2023-04-11T18:42:39.570Z,1.00
2023-04-11T18:45:07.123Z,1.48
2023-04-11T18:47:33.940Z,1.63
2023-04-11T18:50:01.443Z,1.30
2023-04-11T18:52:29.304Z,1.40
2023-04-11T18:54:56.411Z,1.38
2023-04-11T18:57:25.977Z,1.10
2023-04-11T18:59:55.611Z,1.40
2023-04-11T19:02:24.301Z,1.58
2023-04-11T19:04:52.043Z,1.13
2023-04-11T19:07:19.097Z,1.60
2023-04-11T19:09:46.917Z,1.25
2023-04-11T19:12:16.760Z,1.58
2023-04-11T19:14:43.794Z,1.58
2023-04-11T19:17:12.716Z,2.13
2023-04-11T19:19:39.649Z,1.23
2023-04-11T19:22:06.089Z,1.33
2023-04-11T19:24:32.531Z,1.23
2023-04-11T19:26:59.432Z,1.42
2023-04-11T19:29:26.007Z,1.30
2023-04-11T19:31:52.660Z,1.30
2023-04-11T19:34:19.173Z,1.70
2023-04-11T19:36:45.557Z,1.40
2023-04-11T19:39:12.073Z,1.42
2023-04-11T19:41:44.088Z,1.35
2023-04-11T19:44:10.792Z,1.50
2023-04-11T19:46:37.260Z,1.38
2023-04-11T19:49:04.073Z,1.30
2023-04-11T19:51:30.611Z,1.10
2023-04-11T19:53:57.227Z,1.50
2023-04-11T19:56:24.103Z,1.85
2023-04-11T19:58:51.220Z,1.70
2023-04-11T20:01:18.685Z,1.50
2023-04-11T20:03:45.211Z,1.35
2023-04-11T20:06:12.875Z,1.25
2023-04-11T20:08:39.783Z,1.40
2023-04-11T20:11:06.415Z,1.52
2023-04-11T20:13:34.219Z,1.70
2023-04-11T20:16:04.579Z,1.80
2023-04-11T20:18:31.065Z,2.45
2023-04-11T20:20:57.766Z,2.88
2023-04-11T20:23:24.225Z,2.58
2023-04-11T20:25:50.864Z,2.83
2023-04-11T20:28:17.639Z,2.67
2023-04-11T20:30:44.139Z,2.35
2023-04-11T20:33:10.909Z,2.28
2023-04-11T20:35:37.822Z,2.70
2023-04-11T20:38:04.718Z,2.90
2023-04-11T20:40:31.201Z,2.85
2023-04-11T20:43:00.454Z,2.90
2023-04-11T20:45:27.866Z,2.70
2023-04-11T20:47:55.244Z,3.05
2023-04-11T20:50:21.887Z,3.38
2023-04-11T20:52:52.893Z,3.53
2023-04-11T20:55:20.825Z,3.55
2023-04-11T20:57:47.501Z,4.40
2023-04-11T21:00:14.851Z,3.88
2023-04-11T21:02:44.634Z,3.10
2023-04-11T21:05:12.534Z,3.08
2023-04-11T21:07:40.234Z,3.80
2023-04-11T21:10:07.778Z,2.88
2023-04-11T21:12:35.565Z,3.47
2023-04-11T21:15:04.111Z,2.75
2023-04-11T21:17:35.484Z,2.28
2023-04-11T21:20:17.399Z,2.25
2023-04-11T21:22:44.837Z,1.73
2023-04-11T21:25:11.841Z,2.20
2023-04-11T21:27:38.274Z,2.13
2023-04-11T21:30:06.221Z,1.67
2023-04-11T21:32:33.456Z,2.03
2023-04-11T21:34:59.933Z,1.70
2023-04-11T21:37:26.375Z,1.65
2023-04-11T21:39:56.340Z,1.60
2023-04-11T21:42:22.777Z,1.70
2023-04-11T21:44:49.206Z,1.58
2023-04-11T21:47:18.104Z,1.73
2023-04-11T21:49:47.016Z,1.95
2023-04-11T21:52:13.428Z,2.22
2023-04-11T21:54:42.600Z,7.75
2023-04-11T21:57:09.480Z,7.75
2023-04-11T21:59:35.927Z,8.13
2023-04-11T22:02:03.106Z,4.82
2023-04-11T22:04:31.554Z,4.15
2023-04-11T22:06:58.354Z,3.60
2023-04-11T22:09:25.375Z,3.22
2023-04-11T22:11:52.539Z,3.30
2023-04-11T22:14:19.040Z,4.07
2023-04-11T22:16:49.656Z,3.58
2023-04-11T22:19:20.810Z,3.85
2023-04-11T22:21:56.782Z,3.70
2023-04-11T22:24:30.184Z,4.20
2023-04-11T22:26:58.716Z,3.65
2023-04-11T22:29:30.403Z,3.50
2023-04-11T22:32:01.197Z,3.00
2023-04-11T22:34:28.115Z,3.28
2023-04-11T22:36:54.572Z,4.05
2023-04-11T22:39:22.393Z,3.20
2023-04-11T22:41:50.413Z,3.38
2023-04-11T22:44:17.955Z,3.38
2023-04-11T22:47:06.593Z,2.55
2023-04-11T22:49:40.676Z,2.85
2023-04-11T22:52:15.341Z,2.85
2023-04-11T22:54:42.878Z,2.38
2023-04-11T22:57:09.750Z,2.22
2023-04-11T22:59:36.837Z,2.60
2023-04-11T23:02:03.540Z,2.40
2023-04-11T23:04:32.434Z,2.17
2023-04-11T23:06:59.225Z,2.25
2023-04-11T23:09:26.391Z,2.05
2023-04-11T23:11:53.828Z,2.47
2023-04-11T23:14:21.267Z,2.20
2023-04-11T23:16:48.231Z,2.22
2023-04-11T23:19:15.753Z,2.33
2023-04-11T23:21:42.624Z,3.08
2023-04-11T23:24:09.784Z,2.13
2023-04-11T23:26:37.520Z,2.78
2023-04-11T23:29:04.631Z,3.28
2023-04-11T23:31:32.517Z,4.05
2023-04-11T23:34:01.306Z,3.80
2023-04-11T23:36:28.072Z,3.85
2023-04-11T23:38:54.697Z,4.18
2023-04-11T23:41:21.781Z,4.25
2023-04-11T23:43:48.264Z,4.25
2023-04-11T23:46:15.004Z,4.38
2023-04-11T23:48:41.960Z,3.05
2023-04-11T23:51:08.363Z,2.33
2023-04-11T23:53:34.841Z,2.40
2023-04-11T23:56:02.154Z,3.10
2023-04-11T23:58:28.649Z,3.53
